createdAt,value
2022-10-05T00:00:00.324Z,17.8
2022-10-05T00:01:04.021Z,17.8
2022-10-05T00:02:00.315Z,17.8
2022-10-05T00:03:09.580Z,17.2
2022-10-05T00:04:09.989Z,17.2
2022-10-05T00:05:00.322Z,17.2
2022-10-05T00:06:00.277Z,17.2
2022-10-05T00:07:07.793Z,17.2
2022-10-05T00:08:11.816Z,16.3
2022-10-05T00:09:00.247Z,16.3
2022-10-05T00:10:00.237Z,16.3
2022-10-05T00:11:00.440Z,16.3
2022-10-05T00:12:12.485Z,16.3
2022-10-05T00:13:00.265Z,15.8
2022-10-05T00:14:00.579Z,15.8
2022-10-05T00:15:00.653Z,15.8
2022-10-05T00:16:04.831Z,15.8
2022-10-05T00:17:03.309Z,15.8
2022-10-05T00:18:04.958Z,14.3
2022-10-05T00:19:00.210Z,14.3
2022-10-05T00:20:00.287Z,14.3
2022-10-05T00:21:00.698Z,14.3
2022-10-05T00:22:07.928Z,14.3
2022-10-05T00:23:06.223Z,14.8
2022-10-05T00:24:00.351Z,14.8
2022-10-05T00:25:09.953Z,14.8
2022-10-05T00:26:10.432Z,14.8
2022-10-05T00:27:05.965Z,14.8
2022-10-05T00:28:00.286Z,14.2
2022-10-05T00:29:01.409Z,14.2
2022-10-05T00:30:10.730Z,14.2
2022-10-05T00:31:00.271Z,14.2
2022-10-05T00:32:00.346Z,14.2
2022-10-05T00:33:00.294Z,16.7
2022-10-05T00:34:00.671Z,16.7
2022-10-05T00:35:00.255Z,16.7
2022-10-05T00:36:00.215Z,16.7
2022-10-05T00:37:00.272Z,16.7
2022-10-05T00:38:00.268Z,12.7
2022-10-05T00:39:00.937Z,12.7
2022-10-05T00:40:00.744Z,12.7
2022-10-05T00:41:03.486Z,12.7
2022-10-05T00:42:10.491Z,12.7
2022-10-05T00:43:13.157Z,15.7
2022-10-05T00:44:11.357Z,15.7
2022-10-05T00:45:02.920Z,15.7
2022-10-05T00:46:13.492Z,15.7
2022-10-05T00:47:18.676Z,14.9
2022-10-05T00:48:17.598Z,14.9
2022-10-05T00:49:11.173Z,14.9
2022-10-05T00:50:17.692Z,14.9
2022-10-05T00:51:17.545Z,14.9
2022-10-05T00:52:18.344Z,14.7
2022-10-05T00:53:17.629Z,14.7
2022-10-05T00:54:18.588Z,14.7
2022-10-05T00:55:17.845Z,14.7
2022-10-05T00:56:11.446Z,14.7
2022-10-05T00:57:20.130Z,14.3
2022-10-05T00:58:10.169Z,14.3
2022-10-05T00:59:11.188Z,14.3
2022-10-05T01:00:08.332Z,14.3
2022-10-05T01:01:10.250Z,14.3
2022-10-05T01:02:17.610Z,13.1
2022-10-05T01:03:09.598Z,13.1
2022-10-05T01:04:11.334Z,13.1
2022-10-05T01:05:09.658Z,13.1
2022-10-05T01:06:20.170Z,13.1
2022-10-05T01:07:20.136Z,14.3
2022-10-05T01:08:07.089Z,14.3
2022-10-05T01:09:09.827Z,14.3
2022-10-05T01:10:11.287Z,14.3
2022-10-05T01:11:10.742Z,14.3
2022-10-05T01:12:14.542Z,13.3
2022-10-05T01:13:13.484Z,13.3
2022-10-05T01:14:13.421Z,13.3
2022-10-05T01:15:13.895Z,13.3
2022-10-05T01:16:20.226Z,13.3
2022-10-05T01:17:08.417Z,13.3
2022-10-05T01:18:09.787Z,12.2
2022-10-05T01:19:20.133Z,12.2
2022-10-05T01:20:03.481Z,12.2
2022-10-05T01:21:04.994Z,12.2
2022-10-05T01:22:12.979Z,16.2
2022-10-05T01:23:20.417Z,16.2
2022-10-05T01:24:20.142Z,16.2
2022-10-05T01:25:20.137Z,16.2
2022-10-05T01:26:20.137Z,16.2
2022-10-05T01:27:11.193Z,12.6
2022-10-05T01:28:14.273Z,12.6
2022-10-05T01:29:11.229Z,12.6
2022-10-05T01:30:12.873Z,12.6
2022-10-05T01:31:08.475Z,12.6
2022-10-05T01:32:11.182Z,13.1
2022-10-05T01:33:17.937Z,13.1
2022-10-05T01:34:20.170Z,13.1
2022-10-05T01:35:20.134Z,13.1
2022-10-05T01:36:08.050Z,13.1
2022-10-05T01:37:09.641Z,13.1
2022-10-05T01:38:13.489Z,16.2
2022-10-05T01:39:20.135Z,16.2
2022-10-05T01:40:07.678Z,16.2
2022-10-05T01:41:17.614Z,16.2
2022-10-05T01:42:12.367Z,13.7
2022-10-05T01:43:10.165Z,13.7
2022-10-05T01:44:04.882Z,13.7
2022-10-05T01:45:14.603Z,13.7
2022-10-05T01:46:17.751Z,13.7
2022-10-05T01:47:15.778Z,12.6
2022-10-05T01:48:17.201Z,12.6
2022-10-05T01:49:07.629Z,12.6
2022-10-05T01:50:06.469Z,12.6
2022-10-05T01:51:17.424Z,12.6
2022-10-05T01:52:04.653Z,12.6
2022-10-05T01:53:11.657Z,13.6
2022-10-05T01:54:17.670Z,13.6
2022-10-05T01:55:11.178Z,13.6
2022-10-05T01:56:08.947Z,13.6
2022-10-05T01:57:16.727Z,14.2
2022-10-05T01:58:20.140Z,14.2
2022-10-05T01:59:11.186Z,14.2
2022-10-05T02:00:03.488Z,14.2
2022-10-05T02:01:20.223Z,14.2
2022-10-05T02:02:04.576Z,14.2
2022-10-05T02:03:10.564Z,11.7
2022-10-05T02:04:06.298Z,11.7
2022-10-05T02:05:14.555Z,11.7
2022-10-05T02:06:14.985Z,11.7
2022-10-05T02:07:06.153Z,13.9
2022-10-05T02:08:06.215Z,13.9
2022-10-05T02:09:10.211Z,13.9
2022-10-05T02:10:05.007Z,13.9
2022-10-05T02:11:04.372Z,13.9
2022-10-05T02:12:06.021Z,12.6
2022-10-05T02:13:05.857Z,12.6
2022-10-05T02:14:08.503Z,12.6
2022-10-05T02:15:09.626Z,12.6
2022-10-05T02:16:04.569Z,12.6
2022-10-05T02:17:05.534Z,14.1
2022-10-05T02:18:08.432Z,14.1
2022-10-05T02:19:10.386Z,14.1
2022-10-05T02:20:06.679Z,14.1
2022-10-05T02:21:01.848Z,14.1
2022-10-05T02:22:06.015Z,13.3
2022-10-05T02:23:06.230Z,13.3
2022-10-05T02:24:07.582Z,13.3
2022-10-05T02:25:06.307Z,13.3
2022-10-05T02:26:00.604Z,13.3
2022-10-05T02:27:04.350Z,11.2
2022-10-05T02:28:05.693Z,11.2
2022-10-05T02:29:04.971Z,11.2
2022-10-05T02:30:04.788Z,11.2
2022-10-05T02:31:05.799Z,11.2
2022-10-05T02:32:10.444Z,13.4
2022-10-05T02:33:05.660Z,13.4
2022-10-05T02:34:20.166Z,13.4
2022-10-05T02:35:02.847Z,13.4
2022-10-05T02:36:10.347Z,13.4
2022-10-05T02:37:11.775Z,11.0
2022-10-05T02:38:07.443Z,11.0
2022-10-05T02:39:15.168Z,11.0
2022-10-05T02:40:20.151Z,11.0
2022-10-05T02:41:05.542Z,11.0
2022-10-05T02:42:14.794Z,10.1
2022-10-05T02:43:10.169Z,10.1
2022-10-05T02:44:13.863Z,10.1
2022-10-05T02:45:10.159Z,10.1
2022-10-05T02:46:20.194Z,10.1
2022-10-05T02:47:13.600Z,11.1
2022-10-05T02:48:17.724Z,11.1
2022-10-05T02:49:11.331Z,11.1
2022-10-05T02:50:13.905Z,11.1
2022-10-05T02:51:19.728Z,11.1
2022-10-05T02:52:12.917Z,10.7
2022-10-05T02:53:11.183Z,10.7
2022-10-05T02:54:20.153Z,10.7
2022-10-05T02:55:11.629Z,10.7
2022-10-05T02:56:14.401Z,10.7
2022-10-05T02:57:17.566Z,10.1
2022-10-05T02:58:10.789Z,10.1
2022-10-05T02:59:10.011Z,10.1
2022-10-05T03:00:12.241Z,10.1
2022-10-05T03:01:10.221Z,10.1
2022-10-05T03:02:11.301Z,14.2
2022-10-05T03:03:05.536Z,14.2
2022-10-05T03:04:15.941Z,14.2
2022-10-05T03:05:01.231Z,14.2
2022-10-05T03:06:04.179Z,14.2
2022-10-05T03:07:10.512Z,13.0
2022-10-05T03:08:06.548Z,13.0
2022-10-05T03:09:06.061Z,13.0
2022-10-05T03:10:10.166Z,13.0
2022-10-05T03:11:13.952Z,13.0
2022-10-05T03:12:20.132Z,13.7
2022-10-05T03:13:11.750Z,13.7
2022-10-05T03:14:11.906Z,13.7
2022-10-05T03:15:18.484Z,13.7
2022-10-05T03:16:11.674Z,13.7
2022-10-05T03:17:16.866Z,11.8
2022-10-05T03:18:10.165Z,11.8
2022-10-05T03:19:12.918Z,11.8
2022-10-05T03:20:10.846Z,11.8
2022-10-05T03:21:10.194Z,11.8
2022-10-05T03:22:10.190Z,11.6
2022-10-05T03:23:01.734Z,11.6
2022-10-05T03:24:20.393Z,11.6
2022-10-05T03:25:20.125Z,11.6
2022-10-05T03:26:04.495Z,11.6
2022-10-05T03:27:07.817Z,13.3
2022-10-05T03:28:10.763Z,13.3
2022-10-05T03:29:06.808Z,13.3
2022-10-05T03:30:13.137Z,13.3
2022-10-05T03:31:20.216Z,13.3
2022-10-05T03:32:13.425Z,10.1
2022-10-05T03:33:12.352Z,10.1
2022-10-05T03:34:11.717Z,10.1
2022-10-05T03:35:15.255Z,10.1
2022-10-05T03:36:17.624Z,10.1
2022-10-05T03:37:09.366Z,11.5
2022-10-05T03:38:17.861Z,11.5
2022-10-05T03:39:09.086Z,11.5
2022-10-05T03:40:07.610Z,11.5
2022-10-05T03:41:20.153Z,11.5
2022-10-05T03:42:17.527Z,11.9
2022-10-05T03:43:04.504Z,11.9
2022-10-05T03:44:15.189Z,11.9
2022-10-05T03:45:04.394Z,11.9
2022-10-05T03:46:07.620Z,11.9
2022-10-05T03:47:11.173Z,12.0
2022-10-05T03:48:08.910Z,12.0
2022-10-05T03:49:13.187Z,12.0
2022-10-05T03:50:15.124Z,12.0
2022-10-05T03:51:09.212Z,12.0
2022-10-05T03:52:07.997Z,15.2
2022-10-05T03:53:14.023Z,15.2
2022-10-05T03:54:18.480Z,15.2
2022-10-05T03:55:02.727Z,15.2
2022-10-05T03:56:04.803Z,15.2
2022-10-05T03:57:10.278Z,12.5
2022-10-05T03:58:08.876Z,12.5
2022-10-05T03:59:08.997Z,12.5
2022-10-05T04:00:10.172Z,12.5
2022-10-05T04:01:12.288Z,12.5
2022-10-05T04:02:05.460Z,13.0
2022-10-05T04:03:11.368Z,13.0
2022-10-05T04:04:03.285Z,13.0
2022-10-05T04:05:12.514Z,13.0
2022-10-05T04:06:08.183Z,13.0
2022-10-05T04:07:01.147Z,14.2
2022-10-05T04:08:20.163Z,14.2
2022-10-05T04:09:12.442Z,14.2
2022-10-05T04:10:05.978Z,14.2
2022-10-05T04:11:04.941Z,14.2
2022-10-05T04:12:11.337Z,11.0
2022-10-05T04:13:13.878Z,11.0
2022-10-05T04:14:06.038Z,11.0
2022-10-05T04:15:18.013Z,11.0
2022-10-05T04:16:13.941Z,11.0
2022-10-05T04:17:15.599Z,13.6
2022-10-05T04:18:06.219Z,13.6
2022-10-05T04:19:11.835Z,13.6
2022-10-05T04:20:06.123Z,13.6
2022-10-05T04:21:07.953Z,13.6
2022-10-05T04:22:16.431Z,11.7
2022-10-05T04:23:12.135Z,11.7
2022-10-05T04:24:10.790Z,11.7
2022-10-05T04:25:15.745Z,11.7
2022-10-05T04:26:05.155Z,11.7
2022-10-05T04:27:08.058Z,10.7
2022-10-05T04:28:20.262Z,10.7
2022-10-05T04:29:11.128Z,10.7
2022-10-05T04:30:10.394Z,10.7
2022-10-05T04:31:05.440Z,10.7
2022-10-05T04:32:20.131Z,10.3
2022-10-05T04:33:00.746Z,10.3
2022-10-05T04:34:11.195Z,10.3
2022-10-05T04:35:08.856Z,10.3
2022-10-05T04:36:12.243Z,10.3
2022-10-05T04:37:06.453Z,11.9
2022-10-05T04:38:18.088Z,11.9
2022-10-05T04:39:14.990Z,11.9
2022-10-05T04:40:14.370Z,11.9
2022-10-05T04:41:20.130Z,11.9
2022-10-05T04:42:11.204Z,10.9
2022-10-05T04:43:13.869Z,10.9
2022-10-05T04:44:10.179Z,10.9
2022-10-05T04:45:07.799Z,10.9
2022-10-05T04:46:10.229Z,10.9
2022-10-05T04:47:20.127Z,13.2
2022-10-05T04:48:19.153Z,13.2
2022-10-05T04:49:17.963Z,13.2
2022-10-05T04:50:11.205Z,13.2
2022-10-05T04:51:10.179Z,13.2
2022-10-05T04:52:20.130Z,10.7
2022-10-05T04:53:18.334Z,10.7
2022-10-05T04:54:20.175Z,10.7
2022-10-05T04:55:17.706Z,10.7
2022-10-05T04:56:08.642Z,10.7
2022-10-05T04:57:06.307Z,11.4
2022-10-05T04:58:05.604Z,11.4
2022-10-05T04:59:20.138Z,11.4
2022-10-05T05:00:03.650Z,11.4
2022-10-05T05:01:03.534Z,11.4
2022-10-05T05:02:06.811Z,10.5
2022-10-05T05:03:19.559Z,10.5
2022-10-05T05:04:17.722Z,10.5
2022-10-05T05:05:20.141Z,10.5
2022-10-05T05:06:18.898Z,10.5
2022-10-05T05:07:04.492Z,11.1
2022-10-05T05:08:10.748Z,11.1
2022-10-05T05:09:19.790Z,11.1
2022-10-05T05:10:03.503Z,11.1
2022-10-05T05:11:19.974Z,11.1
2022-10-05T05:12:10.469Z,10.5
2022-10-05T05:13:07.502Z,10.5
2022-10-05T05:14:11.226Z,10.5
2022-10-05T05:15:17.510Z,10.5
2022-10-05T05:16:09.437Z,10.5
2022-10-05T05:17:13.918Z,9.2
2022-10-05T05:18:17.049Z,9.2
2022-10-05T05:19:16.713Z,9.2
2022-10-05T05:20:20.135Z,9.2
2022-10-05T05:21:12.372Z,9.2
2022-10-05T05:22:06.013Z,10.7
2022-10-05T05:23:17.586Z,10.7
2022-10-05T05:24:20.136Z,10.7
2022-10-05T05:25:20.157Z,10.7
2022-10-05T05:26:20.117Z,10.7
2022-10-05T05:27:20.136Z,12.0
2022-10-05T05:28:14.501Z,12.0
2022-10-05T05:29:17.208Z,12.0
2022-10-05T05:30:17.749Z,12.0
2022-10-05T05:31:09.949Z,12.0
2022-10-05T05:32:11.923Z,10.1
2022-10-05T05:33:13.439Z,10.1
2022-10-05T05:34:20.150Z,10.1
2022-10-05T05:35:20.135Z,10.1
2022-10-05T05:36:10.163Z,10.1
2022-10-05T05:37:06.891Z,12.2
2022-10-05T05:38:20.132Z,12.2
2022-10-05T05:39:20.129Z,12.2
2022-10-05T05:40:17.015Z,12.2
2022-10-05T05:41:00.236Z,12.2
2022-10-05T05:42:20.127Z,9.0
2022-10-05T05:43:20.132Z,9.0
2022-10-05T05:44:10.574Z,9.0
2022-10-05T05:45:13.498Z,9.0
2022-10-05T05:46:07.896Z,9.0
2022-10-05T05:47:13.054Z,9.2
2022-10-05T05:48:04.412Z,9.2
2022-10-05T05:49:12.722Z,9.2
2022-10-05T05:50:20.123Z,9.2
2022-10-05T05:51:10.742Z,9.2
2022-10-05T05:52:05.372Z,13.7
2022-10-05T05:53:11.828Z,13.7
2022-10-05T05:54:11.179Z,13.7
2022-10-05T05:55:06.879Z,13.7
2022-10-05T05:56:09.811Z,13.7
2022-10-05T05:57:11.232Z,11.2
2022-10-05T05:58:12.505Z,11.2
2022-10-05T05:59:10.210Z,11.2
2022-10-05T06:00:10.483Z,11.2
2022-10-05T06:01:05.436Z,11.2
2022-10-05T06:02:08.191Z,10.9
2022-10-05T06:03:10.044Z,10.9
2022-10-05T06:04:20.119Z,10.9
2022-10-05T06:05:09.734Z,10.9
2022-10-05T06:06:05.377Z,10.9
2022-10-05T06:07:02.302Z,9.4
2022-10-05T06:08:06.345Z,9.4
2022-10-05T06:09:10.036Z,9.4
2022-10-05T06:10:17.649Z,9.4
2022-10-05T06:11:10.194Z,9.4
2022-10-05T06:12:07.589Z,10.3
2022-10-05T06:13:05.868Z,10.3
2022-10-05T06:14:05.654Z,10.3
2022-10-05T06:15:12.636Z,10.3
2022-10-05T06:16:13.499Z,10.3
2022-10-05T06:17:05.422Z,10.6
2022-10-05T06:18:09.416Z,10.6
2022-10-05T06:19:09.800Z,10.6
2022-10-05T06:20:05.487Z,10.6
2022-10-05T06:21:06.539Z,10.6
2022-10-05T06:22:06.543Z,11.2
2022-10-05T06:23:04.718Z,11.2
2022-10-05T06:24:14.876Z,11.2
2022-10-05T06:25:11.185Z,11.2
2022-10-05T06:26:16.854Z,11.2
2022-10-05T06:27:10.898Z,12.3
2022-10-05T06:28:08.791Z,12.3
2022-10-05T06:29:04.540Z,12.3
2022-10-05T06:30:05.895Z,12.3
2022-10-05T06:31:03.560Z,12.3
2022-10-05T06:32:09.559Z,9.7
2022-10-05T06:33:16.666Z,9.7
2022-10-05T06:34:20.127Z,9.7
2022-10-05T06:35:16.400Z,9.7
2022-10-05T06:36:11.198Z,9.7
2022-10-05T06:37:09.745Z,11.9
2022-10-05T06:38:14.954Z,11.9
2022-10-05T06:39:20.122Z,11.9
2022-10-05T06:40:06.977Z,11.9
2022-10-05T06:41:12.381Z,11.9
2022-10-05T06:42:19.026Z,9.5
2022-10-05T06:43:09.055Z,9.5
2022-10-05T06:44:20.127Z,9.5
2022-10-05T06:45:13.957Z,9.5
2022-10-05T06:46:07.863Z,9.5
2022-10-05T06:47:20.145Z,10.7
2022-10-05T06:48:09.792Z,10.7
2022-10-05T06:49:17.051Z,10.7
2022-10-05T06:50:07.930Z,10.7
2022-10-05T06:51:18.809Z,10.7
2022-10-05T06:52:11.179Z,13.2
2022-10-05T06:53:17.659Z,13.2
2022-10-05T06:54:20.128Z,13.2
2022-10-05T06:55:17.123Z,13.2
2022-10-05T06:56:20.122Z,13.2
2022-10-05T06:57:08.826Z,11.6
2022-10-05T06:58:12.040Z,11.6
2022-10-05T06:59:11.580Z,11.6
2022-10-05T07:00:08.096Z,11.6
2022-10-05T07:01:20.204Z,11.6
2022-10-05T07:02:13.232Z,10.2
2022-10-05T07:03:17.125Z,10.2
2022-10-05T07:04:20.141Z,10.2
2022-10-05T07:05:11.191Z,10.2
2022-10-05T07:06:09.710Z,10.2
2022-10-05T07:07:12.061Z,9.0
2022-10-05T07:08:04.004Z,9.0
2022-10-05T07:09:20.132Z,9.0
2022-10-05T07:10:18.410Z,9.0
2022-10-05T07:11:13.425Z,9.0
2022-10-05T07:12:10.178Z,10.9
2022-10-05T07:13:10.165Z,10.9
2022-10-05T07:14:16.891Z,10.9
2022-10-05T07:15:20.151Z,10.9
2022-10-05T07:16:06.819Z,10.9
2022-10-05T07:17:07.673Z,11.9
2022-10-05T07:18:13.398Z,11.9
2022-10-05T07:19:15.959Z,11.9
2022-10-05T07:20:11.191Z,11.9
2022-10-05T07:21:11.218Z,11.9
2022-10-05T07:22:20.127Z,8.6
2022-10-05T07:23:15.510Z,8.6
2022-10-05T07:24:20.129Z,8.6
2022-10-05T07:25:10.159Z,8.6
2022-10-05T07:26:01.237Z,8.6
2022-10-05T07:27:13.455Z,9.4
2022-10-05T07:28:11.238Z,9.4
2022-10-05T07:29:11.168Z,9.4
2022-10-05T07:30:05.893Z,9.4
2022-10-05T07:31:15.548Z,9.4
2022-10-05T07:32:13.292Z,9.4
2022-10-05T07:33:16.716Z,9.4
2022-10-05T07:34:08.712Z,9.4
2022-10-05T07:35:08.492Z,9.4
2022-10-05T07:36:07.916Z,9.4
2022-10-05T07:37:06.303Z,11.7
2022-10-05T07:38:10.397Z,11.7
2022-10-05T07:39:04.478Z,11.7
2022-10-05T07:40:18.404Z,11.7
2022-10-05T07:41:06.573Z,11.7
2022-10-05T07:42:18.999Z,11.5
2022-10-05T07:43:20.119Z,11.5
2022-10-05T07:44:12.909Z,11.5
2022-10-05T07:45:13.679Z,11.5
2022-10-05T07:46:20.176Z,11.5
2022-10-05T07:47:09.016Z,14.0
2022-10-05T07:48:10.151Z,14.0
2022-10-05T07:49:20.155Z,14.0
2022-10-05T07:50:14.195Z,14.0
2022-10-05T07:51:15.099Z,14.0
2022-10-05T07:52:09.710Z,9.6
2022-10-05T07:53:09.918Z,9.6
2022-10-05T07:54:12.872Z,9.6
2022-10-05T07:55:05.395Z,9.6
2022-10-05T07:56:10.994Z,9.6
2022-10-05T07:57:09.928Z,12.0
2022-10-05T07:58:01.268Z,12.0
2022-10-05T07:59:05.785Z,12.0
2022-10-05T08:00:04.901Z,12.0
2022-10-05T08:01:05.388Z,12.0
2022-10-05T08:02:20.017Z,13.3
2022-10-05T08:03:13.026Z,13.3
2022-10-05T08:04:05.675Z,13.3
2022-10-05T08:05:09.683Z,13.3
2022-10-05T08:06:04.148Z,13.3
2022-10-05T08:07:04.890Z,14.1
2022-10-05T08:08:16.870Z,14.1
2022-10-05T08:09:09.442Z,14.1
2022-10-05T08:10:20.121Z,14.1
2022-10-05T08:11:11.334Z,14.1
2022-10-05T08:12:20.142Z,11.5
2022-10-05T08:13:16.346Z,11.5
2022-10-05T08:14:10.688Z,11.5
2022-10-05T08:15:13.937Z,11.5
2022-10-05T08:16:04.614Z,11.5
2022-10-05T08:17:09.900Z,9.2
2022-10-05T08:18:13.207Z,9.2
2022-10-05T08:19:07.166Z,9.2
2022-10-05T08:20:06.217Z,9.2
2022-10-05T08:21:00.514Z,9.2
2022-10-05T08:22:07.551Z,9.9
2022-10-05T08:23:12.011Z,9.9
2022-10-05T08:24:10.193Z,9.9
2022-10-05T08:25:04.540Z,9.9
2022-10-05T08:26:10.188Z,9.9
2022-10-05T08:27:09.380Z,10.0
2022-10-05T08:28:03.685Z,10.0
2022-10-05T08:29:13.633Z,10.0
2022-10-05T08:30:07.760Z,10.0
2022-10-05T08:31:09.999Z,10.0
2022-10-05T08:32:05.165Z,8.6
2022-10-05T08:33:13.662Z,8.6
2022-10-05T08:34:20.140Z,8.6
2022-10-05T08:35:13.454Z,8.6
2022-10-05T08:36:07.643Z,8.6
2022-10-05T08:37:09.232Z,7.8
2022-10-05T08:38:06.823Z,7.8
2022-10-05T08:39:09.017Z,7.8
2022-10-05T08:40:17.592Z,7.8
2022-10-05T08:41:10.174Z,7.8
2022-10-05T08:42:11.993Z,9.4
2022-10-05T08:43:07.597Z,9.4
2022-10-05T08:44:06.502Z,9.4
2022-10-05T08:45:10.160Z,9.4
2022-10-05T08:46:17.653Z,9.4
2022-10-05T08:47:14.269Z,11.2
2022-10-05T08:48:13.431Z,11.2
2022-10-05T08:49:09.081Z,11.2
2022-10-05T08:50:13.488Z,11.2
2022-10-05T08:51:14.509Z,11.2
2022-10-05T08:52:10.248Z,8.5
2022-10-05T08:53:20.125Z,8.5
2022-10-05T08:54:13.413Z,8.5
2022-10-05T08:55:11.177Z,8.5
2022-10-05T08:56:22.197Z,8.5
2022-10-05T08:57:10.168Z,10.9
2022-10-05T08:58:20.150Z,10.9
2022-10-05T08:59:10.159Z,10.9
2022-10-05T09:00:06.979Z,10.9
2022-10-05T09:01:03.529Z,10.9
2022-10-05T09:02:11.251Z,9.7
2022-10-05T09:03:17.896Z,9.7
2022-10-05T09:04:18.559Z,9.7
2022-10-05T09:05:20.122Z,9.7
2022-10-05T09:06:17.308Z,9.7
2022-10-05T09:07:09.331Z,9.3
2022-10-05T09:08:20.129Z,9.3
2022-10-05T09:09:17.638Z,9.3
2022-10-05T09:10:13.463Z,9.3
2022-10-05T09:11:09.338Z,9.3
2022-10-05T09:12:17.604Z,8.4
2022-10-05T09:13:13.433Z,8.4
2022-10-05T09:14:20.128Z,8.4
2022-10-05T09:15:25.965Z,8.4
2022-10-05T09:16:20.154Z,8.4
2022-10-05T09:17:18.785Z,9.7
2022-10-05T09:18:17.534Z,9.7
2022-10-05T09:19:20.126Z,9.7
2022-10-05T09:20:03.467Z,9.7
2022-10-05T09:21:09.706Z,9.7
2022-10-05T09:22:13.429Z,8.9
2022-10-05T09:23:11.306Z,8.9
2022-10-05T09:24:14.282Z,8.9
2022-10-05T09:25:20.125Z,8.9
2022-10-05T09:26:07.569Z,8.9
2022-10-05T09:27:10.680Z,8.0
2022-10-05T09:28:17.656Z,8.0
2022-10-05T09:29:20.125Z,8.0
2022-10-05T09:30:20.160Z,8.0
2022-10-05T09:31:10.214Z,8.0
2022-10-05T09:32:15.661Z,8.9
2022-10-05T09:33:19.332Z,8.9
2022-10-05T09:34:20.132Z,8.9
2022-10-05T09:35:20.129Z,8.9
2022-10-05T09:36:18.378Z,8.9
2022-10-05T09:37:10.176Z,8.6
2022-10-05T09:38:20.164Z,8.6
2022-10-05T09:39:02.241Z,8.6
2022-10-05T09:40:13.438Z,8.6
2022-10-05T09:41:20.124Z,8.6
2022-10-05T09:42:01.238Z,9.0
2022-10-05T09:43:08.763Z,9.0
2022-10-05T09:44:11.237Z,9.0
2022-10-05T09:45:10.158Z,9.0
2022-10-05T09:46:10.238Z,9.0
2022-10-05T09:47:07.557Z,7.7
2022-10-05T09:48:11.174Z,7.7
2022-10-05T09:49:20.145Z,7.7
2022-10-05T09:50:20.128Z,7.7
2022-10-05T09:51:08.346Z,7.7
2022-10-05T09:52:20.186Z,6.9
2022-10-05T09:53:10.162Z,6.9
2022-10-05T09:54:20.147Z,6.9
2022-10-05T09:55:17.573Z,6.9
2022-10-05T09:56:19.635Z,6.9
2022-10-05T09:57:09.466Z,6.1
2022-10-05T09:58:11.228Z,6.1
2022-10-05T09:59:20.126Z,6.1
2022-10-05T10:00:11.197Z,6.1
2022-10-05T10:01:32.668Z,6.1
2022-10-05T10:02:09.318Z,6.2
2022-10-05T10:03:17.422Z,6.2
2022-10-05T10:04:04.489Z,6.2
2022-10-05T10:05:15.865Z,6.2
2022-10-05T10:06:14.558Z,6.2
2022-10-05T10:07:04.545Z,9.5
2022-10-05T10:08:18.617Z,9.5
2022-10-05T10:09:10.206Z,9.5
2022-10-05T10:10:20.128Z,9.5
2022-10-05T10:11:11.207Z,9.5
2022-10-05T10:12:10.228Z,9.6
2022-10-05T10:13:17.622Z,9.6
2022-10-05T10:14:15.689Z,9.6
2022-10-05T10:15:13.451Z,9.6
2022-10-05T10:16:04.588Z,9.6
2022-10-05T10:17:09.314Z,6.8
2022-10-05T10:18:16.420Z,6.8
2022-10-05T10:19:16.878Z,6.8
2022-10-05T10:20:16.792Z,6.8
2022-10-05T10:21:01.257Z,6.8
2022-10-05T10:22:17.531Z,8.1
2022-10-05T10:23:20.203Z,8.1
2022-10-05T10:24:14.891Z,8.1
2022-10-05T10:25:10.240Z,8.1
2022-10-05T10:26:11.203Z,8.1
2022-10-05T10:27:13.411Z,7.4
2022-10-05T10:28:20.188Z,7.4
2022-10-05T10:29:11.205Z,7.4
2022-10-05T10:30:20.143Z,7.4
2022-10-05T10:31:13.478Z,7.4
2022-10-05T10:32:20.123Z,4.9
2022-10-05T10:33:09.228Z,4.9
2022-10-05T10:34:20.143Z,4.9
2022-10-05T10:35:20.318Z,4.9
2022-10-05T10:36:08.551Z,4.9
2022-10-05T10:37:19.611Z,6.5
2022-10-05T10:38:07.531Z,6.5
2022-10-05T10:39:09.126Z,6.5
2022-10-05T10:40:17.598Z,6.5
2022-10-05T10:41:20.131Z,6.5
2022-10-05T10:42:16.398Z,8.2
2022-10-05T10:43:20.123Z,8.2
2022-10-05T10:44:20.142Z,8.2
2022-10-05T10:45:17.200Z,8.2
2022-10-05T10:46:16.851Z,8.2
2022-10-05T10:47:20.131Z,7.8
2022-10-05T10:48:02.744Z,7.8
2022-10-05T10:49:14.801Z,7.8
2022-10-05T10:50:20.143Z,7.8
2022-10-05T10:51:02.249Z,7.8
2022-10-05T10:52:20.161Z,8.0
2022-10-05T10:53:20.126Z,8.0
2022-10-05T10:54:10.162Z,8.0
2022-10-05T10:55:13.434Z,8.0
2022-10-05T10:56:11.167Z,8.0
2022-10-05T10:57:06.006Z,7.9
2022-10-05T10:58:03.489Z,7.9
2022-10-05T10:59:11.170Z,7.9
2022-10-05T11:00:10.169Z,7.9
2022-10-05T11:01:20.163Z,7.9
2022-10-05T11:02:18.190Z,6.1
2022-10-05T11:03:11.303Z,6.1
2022-10-05T11:04:20.062Z,6.1
2022-10-05T11:05:10.167Z,6.1
2022-10-05T11:06:20.149Z,6.1
2022-10-05T11:07:20.131Z,6.9
2022-10-05T11:08:16.814Z,6.9
2022-10-05T11:09:20.131Z,6.9
2022-10-05T11:10:10.165Z,6.9
2022-10-05T11:11:20.124Z,6.9
2022-10-05T11:12:07.585Z,5.3
2022-10-05T11:13:03.460Z,5.3
2022-10-05T11:14:20.146Z,5.3
2022-10-05T11:15:04.494Z,5.3
2022-10-05T11:16:10.407Z,5.3
2022-10-05T11:17:01.220Z,7.3
2022-10-05T11:18:16.006Z,7.3
2022-10-05T11:19:11.565Z,7.3
2022-10-05T11:20:10.185Z,7.3
2022-10-05T11:21:11.199Z,7.3
2022-10-05T11:22:20.146Z,7.0
2022-10-05T11:23:20.132Z,7.0
2022-10-05T11:24:20.130Z,7.0
2022-10-05T11:25:20.141Z,7.0
2022-10-05T11:26:20.136Z,7.0
2022-10-05T11:27:11.239Z,6.6
2022-10-05T11:28:13.526Z,6.6
2022-10-05T11:29:20.146Z,6.6
2022-10-05T11:30:11.247Z,6.6
2022-10-05T11:31:17.634Z,6.6
2022-10-05T11:32:20.126Z,7.1
2022-10-05T11:33:20.126Z,7.1
2022-10-05T11:34:20.133Z,7.1
2022-10-05T11:35:20.134Z,7.1
2022-10-05T11:36:03.471Z,7.1
2022-10-05T11:37:15.090Z,5.5
2022-10-05T11:38:10.534Z,5.5
2022-10-05T11:39:20.129Z,5.5
2022-10-05T11:40:20.130Z,5.5
2022-10-05T11:41:20.132Z,5.5
2022-10-05T11:42:20.151Z,7.2
2022-10-05T11:43:18.136Z,7.2
2022-10-05T11:44:20.133Z,7.2
2022-10-05T11:45:20.129Z,7.2
2022-10-05T11:46:15.094Z,7.2
2022-10-05T11:47:17.563Z,5.4
2022-10-05T11:48:18.266Z,5.4
2022-10-05T11:49:20.125Z,5.4
2022-10-05T11:50:20.134Z,5.4
2022-10-05T11:51:22.077Z,5.4
2022-10-05T11:52:07.870Z,5.4
2022-10-05T11:53:07.538Z,5.4
2022-10-05T11:54:09.462Z,5.4
2022-10-05T11:55:11.774Z,5.4
2022-10-05T11:56:17.609Z,5.4
2022-10-05T11:57:20.135Z,5.3
2022-10-05T11:58:20.129Z,5.3
2022-10-05T11:59:12.786Z,5.3
2022-10-05T12:00:10.437Z,5.3
2022-10-05T12:01:20.118Z,5.3
2022-10-05T12:02:12.347Z,9.2
2022-10-05T12:03:20.271Z,9.2
2022-10-05T12:04:11.295Z,9.2
2022-10-05T12:05:20.167Z,9.2
2022-10-05T12:06:14.623Z,9.2
2022-10-05T12:07:15.051Z,4.7
2022-10-05T12:08:14.242Z,4.7
2022-10-05T12:09:17.511Z,4.7
2022-10-05T12:10:06.163Z,4.7
2022-10-05T12:11:14.897Z,4.7
2022-10-05T12:12:08.519Z,4.2
2022-10-05T12:13:09.665Z,4.2
2022-10-05T12:14:10.163Z,4.2
2022-10-05T12:15:12.899Z,4.2
2022-10-05T12:16:17.275Z,4.2
2022-10-05T12:17:09.430Z,7.5
2022-10-05T12:18:10.610Z,7.5
2022-10-05T12:19:12.987Z,7.5
2022-10-05T12:20:12.013Z,7.5
2022-10-05T12:21:04.239Z,7.5
2022-10-05T12:22:17.011Z,6.5
2022-10-05T12:23:16.686Z,6.5
2022-10-05T12:24:11.482Z,6.5
2022-10-05T12:25:04.187Z,6.5
2022-10-05T12:26:05.827Z,6.5
2022-10-05T12:27:06.323Z,5.5
2022-10-05T12:28:08.365Z,5.5
2022-10-05T12:29:06.899Z,5.5
2022-10-05T12:30:12.334Z,5.5
2022-10-05T12:31:12.210Z,5.5
2022-10-05T12:32:06.703Z,10.2
2022-10-05T12:33:11.020Z,10.2
2022-10-05T12:34:11.212Z,10.2
2022-10-05T12:35:13.984Z,10.2
2022-10-05T12:36:13.234Z,10.2
2022-10-05T12:37:13.165Z,8.2
2022-10-05T12:38:14.069Z,8.2
2022-10-05T12:39:14.649Z,8.2
2022-10-05T12:40:16.223Z,8.2
2022-10-05T12:41:06.692Z,8.2
2022-10-05T12:42:05.983Z,6.5
2022-10-05T12:43:01.221Z,6.5
2022-10-05T12:44:10.185Z,6.5
2022-10-05T12:45:20.128Z,6.5
2022-10-05T12:46:11.244Z,6.5
2022-10-05T12:47:12.750Z,10.3
2022-10-05T12:48:12.419Z,10.3
2022-10-05T12:49:00.206Z,10.3
2022-10-05T12:50:10.678Z,10.3
2022-10-05T12:51:08.439Z,10.3
2022-10-05T12:52:04.661Z,9.8
2022-10-05T12:53:19.577Z,9.8
2022-10-05T12:54:09.636Z,9.8
2022-10-05T12:55:17.700Z,9.8
2022-10-05T12:56:07.323Z,9.8
2022-10-05T12:57:20.121Z,6.7
2022-10-05T12:58:11.175Z,6.7
2022-10-05T12:59:11.235Z,6.7
2022-10-05T13:00:07.901Z,6.7
2022-10-05T13:01:10.271Z,6.7
2022-10-05T13:02:10.216Z,6.4
2022-10-05T13:03:14.223Z,6.4
2022-10-05T13:04:20.131Z,6.4
2022-10-05T13:05:10.168Z,6.4
2022-10-05T13:06:15.417Z,6.4
2022-10-05T13:07:20.086Z,8.8
2022-10-05T13:08:14.704Z,8.8
2022-10-05T13:09:12.476Z,8.8
2022-10-05T13:10:20.149Z,8.8
2022-10-05T13:11:10.238Z,8.8
2022-10-05T13:12:10.875Z,7.5
2022-10-05T13:13:20.118Z,7.5
2022-10-05T13:14:20.125Z,7.5
2022-10-05T13:15:07.265Z,7.5
2022-10-05T13:16:08.148Z,7.5
2022-10-05T13:17:09.051Z,4.1
2022-10-05T13:18:10.185Z,4.1
2022-10-05T13:19:11.167Z,4.1
2022-10-05T13:20:10.859Z,4.1
2022-10-05T13:21:09.749Z,4.1
2022-10-05T13:22:11.172Z,5.5
2022-10-05T13:23:11.860Z,5.5
2022-10-05T13:24:05.626Z,5.5
2022-10-05T13:25:13.780Z,5.5
2022-10-05T13:26:07.706Z,5.5
2022-10-05T13:27:13.051Z,5.8
2022-10-05T13:28:01.267Z,5.8
2022-10-05T13:29:10.179Z,5.8